Time,TemperatureF,DewpointF,PressureIn,WindDirection,WindDirectionDegrees,WindSpeedMPH,WindSpeedGustMPH,Humidity,HourlyPrecipIn,Conditions,Clouds,dailyrainin,SoftwareType,DateUTC
2013-02-21 00:00:00,22.0,13.0,-100.00,NNE,25,6.0,8.0,67,-99.99,,,-99.99,,2013-02-21 06:00:00,
2013-02-21 00:11:00,22.0,13.0,-100.00,NNE,25,6.0,8.0,67,-99.99,,,-99.99,,2013-02-21 06:11:00,
2013-02-21 00:51:00,21.0,14.0,-100.00,NE,55,8.0,10.0,74,-99.99,,,-99.99,,2013-02-21 06:51:00,
2013-02-21 01:01:00,21.0,14.0,-100.00,NE,55,8.0,10.0,74,-99.99,,,-99.99,,2013-02-21 07:01:00,
2013-02-21 01:11:00,21.0,15.0,-100.00,NE,55,11.0,14.0,78,-99.99,,,-99.99,,2013-02-21 07:11:00,
2013-02-21 01:21:00,20.0,15.0,-100.00,NE,55,10.0,11.0,79,-99.99,,,-99.99,,2013-02-21 07:21:00,
2013-02-21 01:32:00,20.0,15.0,-100.00,NE,55,10.0,11.0,79,-99.99,,,-99.99,,2013-02-21 07:32:00,
2013-02-21 01:42:00,20.0,15.0,-100.00,ENE,65,11.0,12.0,81,-99.99,,,-99.99,,2013-02-21 07:42:00,
2013-02-21 01:52:00,20.0,15.0,-100.00,ENE,60,10.0,11.0,82,-99.99,,,-99.99,,2013-02-21 07:52:00,
2013-02-21 02:01:00,20.0,15.0,-100.00,ENE,60,10.0,11.0,82,-99.99,,,-99.99,,2013-02-21 08:01:00,
2013-02-21 02:11:00,20.0,15.0,-100.00,ENE,60,8.0,10.0,82,-99.99,,,-99.99,,2013-02-21 08:11:00,
2013-02-21 02:21:00,20.0,16.0,-100.00,East,80,6.0,8.0,83,-99.99,,,-99.99,,2013-02-21 08:21:00,
2013-02-21 02:32:00,20.0,16.0,-100.00,East,80,6.0,8.0,83,-99.99,,,-99.99,,2013-02-21 08:32:00,
2013-02-21 02:42:00,20.0,16.0,-100.00,East,80,6.0,8.0,83,-99.99,,,-99.99,,2013-02-21 08:42:00,
2013-02-21 03:41:00,19.0,15.0,-100.00,ENE,70,8.0,9.0,85,-99.99,,,-99.99,,2013-02-21 09:41:00,
2013-02-21 03:52:00,18.0,15.0,-100.00,ENE,65,8.0,9.0,86,-99.99,,,-99.99,,2013-02-21 09:52:00,
2013-02-21 04:01:00,18.0,15.0,-100.00,ENE,65,8.0,9.0,86,-99.99,,,-99.99,,2013-02-21 10:01:00,
2013-02-21 04:11:00,18.0,15.0,-100.00,ENE,60,6.0,8.0,86,-99.99,,,-99.99,,2013-02-21 10:11:00,
2013-02-21 04:21:00,18.0,15.0,-100.00,ENE,60,8.0,9.0,87,-99.99,,,-99.99,,2013-02-21 10:21:00,
2013-02-21 04:31:00,18.0,15.0,-100.00,ENE,60,8.0,9.0,87,-99.99,,,-99.99,,2013-02-21 10:31:00,
2013-02-21 04:41:00,18.0,15.0,-100.00,ENE,60,8.0,9.0,87,-99.99,,,-99.99,,2013-02-21 10:41:00,
2013-02-21 04:51:00,18.0,15.0,-100.00,ENE,75,8.0,9.0,87,-99.99,,,-99.99,,2013-02-21 10:51:00,
2013-02-21 05:01:00,18.0,15.0,-100.00,ENE,75,8.0,9.0,87,-99.99,,,-99.99,,2013-02-21 11:01:00,
2013-02-21 05:11:00,18.0,15.0,-100.00,ENE,75,8.0,9.0,87,-99.99,,,-99.99,,2013-02-21 11:11:00,
2013-02-21 05:21:00,18.0,15.0,-100.00,East,85,8.0,10.0,88,-99.99,,,-99.99,,2013-02-21 11:21:00,
2013-02-21 05:31:00,18.0,15.0,-100.00,East,85,8.0,10.0,88,-99.99,,,-99.99,,2013-02-21 11:31:00,
2013-02-21 05:41:00,18.0,15.0,-100.00,East,85,10.0,12.0,88,-99.99,,,-99.99,,2013-02-21 11:41:00,
2013-02-21 05:52:00,18.0,15.0,-100.00,East,85,10.0,12.0,88,-99.99,,,-99.99,,2013-02-21 11:52:00,
2013-02-21 06:01:00,18.0,15.0,-100.00,East,85,10.0,12.0,88,-99.99,,,-99.99,,2013-02-21 12:01:00,
2013-02-21 06:02:00,19.0,16.0,-100.00,ENE,75,14.0,17.0,86,-99.99,,,-99.99,,2013-02-21 12:02:00,
2013-02-21 06:32:00,19.0,16.0,-100.00,East,90,12.0,14.0,87,-99.99,,,-99.99,,2013-02-21 12:32:00,
2013-02-21 08:21:00,22.0,16.0,-100.00,East,90,18.0,21.0,78,-99.99,,,-99.99,,2013-02-21 14:21:00,
2013-02-21 08:32:00,22.0,16.0,-100.00,East,90,18.0,21.0,78,-99.99,,,-99.99,,2013-02-21 14:32:00,
2013-02-21 08:42:00,22.0,16.0,-100.00,East,90,18.0,21.0,78,-99.99,,,-99.99,,2013-02-21 14:42:00,
2013-02-21 08:52:00,22.0,15.0,-100.00,East,90,14.0,18.0,74,-99.99,,,-99.99,,2013-02-21 14:52:00,
2013-02-21 09:01:00,22.0,15.0,-100.00,East,90,14.0,18.0,74,-99.99,,,-99.99,,2013-02-21 15:01:00,
2013-02-21 09:12:00,22.0,15.0,-100.00,East,85,16.0,19.0,74,-99.99,,,-99.99,,2013-02-21 15:12:00,
2013-02-21 09:21:00,23.0,16.0,-100.00,East,100,19.0,24.0,73,-99.99,,,-99.99,,2013-02-21 15:21:00,
2013-02-21 09:32:00,23.0,16.0,-100.00,East,100,19.0,24.0,73,-99.99,,,-99.99,,2013-02-21 15:32:00,
2013-02-21 09:42:00,23.0,16.0,-100.00,East,90,19.0,23.0,73,-99.99,,,-99.99,,2013-02-21 15:42:00,
2013-02-21 09:52:00,23.0,15.0,-100.00,East,100,23.0,26.0,71,-99.99,,,-99.99,,2013-02-21 15:52:00,
2013-02-21 10:01:00,23.0,15.0,-100.00,East,100,23.0,26.0,71,-99.99,,,-99.99,,2013-02-21 16:01:00,
2013-02-21 10:12:00,23.0,15.0,-100.00,East,100,23.0,26.0,71,-99.99,,,-99.99,,2013-02-21 16:12:00,
2013-02-21 10:22:00,24.0,16.0,-100.00,East,85,18.0,23.0,70,-99.99,,,-99.99,,2013-02-21 16:22:00,
2013-02-21 10:32:00,24.0,16.0,-100.00,East,85,18.0,23.0,70,-99.99,,,-99.99,,2013-02-21 16:32:00,
2013-02-21 10:42:00,24.0,15.0,-100.00,East,95,21.0,26.0,69,-99.99,,,-99.99,,2013-02-21 16:42:00,
2013-02-21 10:52:00,24.0,15.0,-100.00,East,95,21.0,26.0,69,-99.99,,,-99.99,,2013-02-21 16:52:00,
2013-02-21 11:01:00,24.0,15.0,-100.00,East,95,21.0,26.0,69,-99.99,,,-99.99,,2013-02-21 17:01:00,
2013-02-21 11:11:00,25.0,16.0,-100.00,East,95,21.0,25.0,68,-99.99,,,-99.99,,2013-02-21 17:11:00,
2013-02-21 11:21:00,25.0,16.0,-100.00,ESE,120,18.0,23.0,67,-99.99,,,-99.99,,2013-02-21 17:21:00,
2013-02-21 11:32:00,25.0,16.0,-100.00,ESE,120,18.0,23.0,67,-99.99,,,-99.99,,2013-02-21 17:32:00,
2013-02-21 11:42:00,25.0,15.0,-100.00,East,90,16.0,21.0,66,-99.99,,,-99.99,,2013-02-21 17:42:00,
2013-02-21 11:52:00,25.0,15.0,-100.00,East,90,16.0,21.0,66,-99.99,,,-99.99,,2013-02-21 17:52:00,
2013-02-21 12:02:00,25.0,15.0,-100.00,East,90,16.0,21.0,66,-99.99,,,-99.99,,2013-02-21 18:02:00,
2013-02-21 12:11:00,25.0,16.0,-100.00,East,90,21.0,26.0,67,-99.99,,,-99.99,,2013-02-21 18:11:00,
2013-02-21 12:22:00,25.0,16.0,-100.00,East,90,21.0,26.0,67,-99.99,,,-99.99,,2013-02-21 18:22:00,
2013-02-21 12:32:00,25.0,16.0,-100.00,East,90,21.0,26.0,67,-99.99,,,-99.99,,2013-02-21 18:32:00,
2013-02-21 12:52:00,26.0,18.0,-100.00,East,95,23.0,27.0,70,-99.99,,,-99.99,,2013-02-21 18:52:00,
2013-02-21 13:01:00,26.0,18.0,-100.00,East,95,23.0,27.0,70,-99.99,,,-99.99,,2013-02-21 19:01:00,
2013-02-21 13:12:00,26.0,18.0,-100.00,East,95,14.0,19.0,70,-99.99,,,-99.99,,2013-02-21 19:12:00,
2013-02-21 13:21:00,26.0,18.0,-100.00,East,85,9.0,14.0,70,-99.99,,,-99.99,,2013-02-21 19:21:00,
2013-02-21 13:31:00,26.0,18.0,-100.00,East,85,9.0,14.0,70,-99.99,,,-99.99,,2013-02-21 19:31:00,
2013-02-21 13:42:00,26.0,18.0,-100.00,East,100,11.0,14.0,70,-99.99,,,-99.99,,2013-02-21 19:42:00,
2013-02-21 13:52:00,26.0,18.0,-100.00,East,100,11.0,14.0,70,-99.99,,,-99.99,,2013-02-21 19:52:00,
2013-02-21 14:01:00,27.0,19.0,-100.00,East,90,11.0,12.0,70,-99.99,,,-99.99,,2013-02-21 20:01:00,
2013-02-21 14:11:00,27.0,19.0,-100.00,ENE,70,16.0,18.0,70,-99.99,,,-99.99,,2013-02-21 20:11:00,
2013-02-21 14:21:00,27.0,19.0,-100.00,East,85,16.0,21.0,71,-99.99,,,-99.99,,2013-02-21 20:21:00,
2013-02-21 14:32:00,27.0,19.0,-100.00,East,85,16.0,21.0,71,-99.99,,,-99.99,,2013-02-21 20:32:00,
2013-02-21 14:41:00,26.0,19.0,-100.00,East,90,14.0,17.0,75,-99.99,,,-99.99,,2013-02-21 20:41:00,
2013-02-21 14:53:00,26.0,21.0,-100.00,East,90,14.0,17.0,81,-99.99,,,-99.99,,2013-02-21 20:53:00,
2013-02-21 15:02:00,26.0,21.0,-100.00,East,90,14.0,17.0,81,-99.99,,,-99.99,,2013-02-21 21:02:00,
2013-02-21 15:11:00,26.0,22.0,-100.00,East,100,14.0,14.0,85,-99.99,,,-99.99,,2013-02-21 21:11:00,
2013-02-21 15:21:00,26.0,23.0,-100.00,East,100,16.0,18.0,88,-99.99,,,-99.99,,2013-02-21 21:21:00,
2013-02-21 15:31:00,26.0,23.0,-100.00,East,100,16.0,18.0,88,-99.99,,,-99.99,,2013-02-21 21:31:00,
2013-02-21 15:42:00,26.0,23.0,-100.00,East,100,16.0,18.0,88,-99.99,,,-99.99,,2013-02-21 21:42:00,
2013-02-21 15:52:00,26.0,24.0,-100.00,East,90,19.0,23.0,91,-99.99,,,-99.99,,2013-02-21 21:52:00,
2013-02-21 16:01:00,26.0,24.0,-100.00,East,90,19.0,23.0,91,-99.99,,,-99.99,,2013-02-21 22:01:00,
2013-02-21 16:11:00,26.0,24.0,-100.00,East,85,21.0,24.0,93,-99.99,,,-99.99,,2013-02-21 22:11:00,
2013-02-21 16:21:00,26.0,24.0,-100.00,East,85,21.0,24.0,93,-99.99,,,-99.99,,2013-02-21 22:21:00,
2013-02-21 16:32:00,26.0,24.0,-100.00,East,85,21.0,24.0,93,-99.99,,,-99.99,,2013-02-21 22:32:00,
2013-02-21 16:42:00,26.0,24.0,-100.00,East,80,23.0,27.0,93,-99.99,,,-99.99,,2013-02-21 22:42:00,
2013-02-21 16:52:00,26.0,24.0,-100.00,East,80,23.0,27.0,93,-99.99,,,-99.99,,2013-02-21 22:52:00,
2013-02-21 17:01:00,26.0,24.0,-100.00,East,80,23.0,27.0,93,-99.99,,,-99.99,,2013-02-21 23:01:00,
2013-02-21 17:11:00,26.0,25.0,-100.00,East,80,26.0,34.0,94,-99.99,,,-99.99,,2013-02-21 23:11:00,
2013-02-21 17:21:00,26.0,25.0,-100.00,East,85,24.0,29.0,94,-99.99,,,-99.99,,2013-02-21 23:21:00,
2013-02-21 17:32:00,26.0,25.0,-100.00,East,85,24.0,29.0,94,-99.99,,,-99.99,,2013-02-21 23:32:00,
2013-02-21 17:41:00,26.0,25.0,-100.00,East,85,29.0,34.0,94,-99.99,,,-99.99,,2013-02-21 23:41:00,
2013-02-21 17:52:00,27.0,26.0,-100.00,East,80,29.0,32.0,94,-99.99,,,-99.99,,2013-02-21 23:52:00,
2013-02-21 18:01:00,27.0,26.0,-100.00,East,80,29.0,32.0,94,-99.99,,,-99.99,,2013-02-22 00:01:00,
2013-02-21 18:11:00,27.0,26.0,-100.00,East,90,29.0,34.0,94,-99.99,,,-99.99,,2013-02-22 00:11:00,
2013-02-21 18:21:00,27.0,26.0,-100.00,East,85,29.0,37.0,94,-99.99,,,-99.99,,2013-02-22 00:21:00,
2013-02-21 18:32:00,27.0,26.0,-100.00,East,85,29.0,37.0,94,-99.99,,,-99.99,,2013-02-22 00:32:00,
2013-02-21 18:42:00,27.0,26.0,-100.00,East,85,31.0,34.0,94,-99.99,,,-99.99,,2013-02-22 00:42:00,
2013-02-21 18:52:00,28.0,27.0,-100.00,East,90,29.0,34.0,94,-99.99,,,-99.99,,2013-02-22 00:52:00,
2013-02-21 19:01:00,28.0,27.0,-100.00,East,90,29.0,34.0,94,-99.99,,,-99.99,,2013-02-22 01:01:00,
2013-02-21 19:11:00,28.0,27.0,-100.00,East,90,23.0,29.0,94,-99.99,,,-99.99,,2013-02-22 01:11:00,
2013-02-21 19:21:00,28.0,26.0,-100.00,East,90,23.0,27.0,93,-99.99,,,-99.99,,2013-02-22 01:21:00,
2013-02-21 19:32:00,28.0,26.0,-100.00,East,90,23.0,27.0,93,-99.99,,,-99.99,,2013-02-22 01:32:00,
2013-02-21 19:42:00,29.0,27.0,-100.00,East,95,23.0,27.0,93,-99.99,,,-99.99,,2013-02-22 01:42:00,
2013-02-21 19:52:00,29.0,27.0,-100.00,East,100,16.0,19.0,93,-99.99,,,-99.99,,2013-02-22 01:52:00,
2013-02-21 20:02:00,29.0,27.0,-100.00,East,100,16.0,19.0,93,-99.99,,,-99.99,,2013-02-22 02:02:00,
2013-02-21 20:11:00,29.0,27.0,-100.00,East,100,16.0,19.0,93,-99.99,,,-99.99,,2013-02-22 02:11:00,
2013-02-21 20:21:00,30.0,28.0,-100.00,ESE,110,10.0,12.0,93,-99.99,,,-99.99,,2013-02-22 02:21:00,
2013-02-21 20:32:00,30.0,28.0,-100.00,ESE,110,10.0,12.0,93,-99.99,,,-99.99,,2013-02-22 02:32:00,
2013-02-21 20:42:00,30.0,29.0,-100.00,East,90,4.0,6.0,94,-99.99,,,-99.99,,2013-02-22 02:42:00,
2013-02-21 20:52:00,30.0,29.0,-100.00,ESE,115,2.0,3.0,94,-99.99,,,-99.99,,2013-02-22 02:52:00,
2013-02-21 21:01:00,30.0,29.0,-100.00,ESE,115,2.0,3.0,94,-99.99,,,-99.99,,2013-02-22 03:01:00,
2013-02-21 21:11:00,30.0,29.0,-100.00,ESE,115,2.0,3.0,94,-99.99,,,-99.99,,2013-02-22 03:11:00,
2013-02-21 21:21:00,30.0,29.0,-100.00,East,100,2.0,4.0,94,-99.99,,,-99.99,,2013-02-22 03:21:00,
2013-02-21 21:32:00,30.0,29.0,-100.00,East,100,2.0,4.0,94,-99.99,,,-99.99,,2013-02-22 03:32:00,
2013-02-21 21:42:00,31.0,29.0,-100.00,East,100,2.0,3.0,94,-99.99,,,-99.99,,2013-02-22 03:42:00,
2013-02-21 21:52:00,31.0,29.0,-100.00,ESE,110,2.0,2.0,94,-99.99,,,-99.99,,2013-02-22 03:52:00,
2013-02-21 22:02:00,31.0,29.0,-100.00,ESE,110,2.0,2.0,94,-99.99,,,-99.99,,2013-02-22 04:02:00,
2013-02-21 22:11:00,32.0,30.0,-100.00,ESE,115,2.0,2.0,94,-99.99,,,-99.99,,2013-02-22 04:11:00,
2013-02-21 22:21:00,32.0,30.0,-100.00,SE,130,2.0,3.0,94,-99.99,,,-99.99,,2013-02-22 04:21:00,
2013-02-21 22:32:00,32.0,30.0,-100.00,SE,130,2.0,3.0,94,-99.99,,,-99.99,,2013-02-22 04:32:00,
2013-02-21 22:42:00,32.0,30.0,-100.00,SE,130,1.0,2.0,94,-99.99,,,-99.99,,2013-02-22 04:42:00,
2013-02-21 22:52:00,32.0,31.0,-100.00,SE,135,2.0,2.0,95,-99.99,,,-99.99,,2013-02-22 04:52:00,
2013-02-21 23:02:00,32.0,31.0,-100.00,SE,135,2.0,2.0,95,-99.99,,,-99.99,,2013-02-22 05:02:00,
2013-02-21 23:12:00,32.0,31.0,-100.00,SE,135,2.0,2.0,95,-99.99,,,-99.99,,2013-02-22 05:12:00,
2013-02-21 23:22:00,32.0,31.0,-100.00,SE,130,1.0,2.0,95,-99.99,,,-99.99,,2013-02-22 05:22:00,
2013-02-21 23:32:00,32.0,31.0,-100.00,SE,130,1.0,2.0,95,-99.99,,,-99.99,,2013-02-22 05:32:00,
2013-02-21 23:42:00,32.0,31.0,-100.00,SE,130,1.0,2.0,95,-99.99,,,-99.99,,2013-02-22 05:42:00,
2013-02-21 23:52:00,32.0,31.0,-100.00,SE,140,1.0,2.0,95,-99.99,,,-99.99,,2013-02-22 05:52:00,